createdAt,value
2019-01-28T00:03:20.373Z,98194.00
2019-01-28T00:06:08.100Z,98062.00
2019-01-28T00:08:48.554Z,97956.00
2019-01-28T00:11:35.954Z,98168.00
2019-01-28T00:14:16.464Z,98196.00
2019-01-28T00:17:03.845Z,98195.00
2019-01-28T00:19:45.322Z,98188.00
2019-01-28T00:22:32.740Z,97989.00
2019-01-28T00:25:13.350Z,97958.00
2019-01-28T00:27:53.407Z,98194.00
2019-01-28T00:30:21.269Z,98192.00
2019-01-28T00:33:02.223Z,98199.00
2019-01-28T00:35:49.584Z,98243.00
2019-01-28T00:38:30.143Z,98200.00
2019-01-28T00:41:11.004Z,98221.00
2019-01-28T00:43:58.359Z,98205.00
2019-01-28T00:46:39.530Z,98206.00
2019-01-28T00:49:20.722Z,98201.00
2019-01-28T00:51:48.761Z,98203.00
2019-01-28T00:54:19.737Z,98203.00
2019-01-28T00:56:47.730Z,98210.00
2019-01-28T00:59:35.316Z,98057.00
2019-01-28T01:02:15.799Z,98214.00
2019-01-28T01:05:03.489Z,97959.00
2019-01-28T01:07:44.166Z,98209.00
2019-01-28T01:10:31.734Z,98211.00
2019-01-28T01:13:14.137Z,98212.00
2019-01-28T01:16:01.726Z,97949.00
2019-01-28T01:18:29.625Z,98222.00
2019-01-28T01:21:17.078Z,98122.00
2019-01-28T01:23:57.522Z,97926.00
2019-01-28T01:26:44.954Z,98274.00
2019-01-28T01:29:25.903Z,98103.00
2019-01-28T01:31:53.890Z,98229.00
2019-01-28T01:34:34.833Z,98234.00
2019-01-28T01:37:22.289Z,97957.00
2019-01-28T01:39:50.241Z,98223.00
2019-01-28T01:42:18.209Z,98221.00
2019-01-28T01:44:46.165Z,98214.00
2019-01-28T01:47:33.593Z,98224.00
2019-01-28T01:50:01.548Z,98215.00
2019-01-28T01:52:29.445Z,98229.00
2019-01-28T01:54:57.607Z,98225.00
2019-01-28T01:57:38.626Z,98231.00
2019-01-28T02:00:26.527Z,98220.00
2019-01-28T02:03:07.596Z,98231.00
2019-01-28T02:05:55.223Z,98210.00
2019-01-28T02:08:23.259Z,98223.00
2019-01-28T02:10:53.135Z,98210.00
2019-01-28T02:13:34.892Z,98203.00
2019-01-28T02:16:22.303Z,97967.00
2019-01-28T02:19:03.263Z,98221.00
2019-01-28T02:21:51.097Z,97986.00
2019-01-28T02:24:31.502Z,98224.00
2019-01-28T02:27:18.922Z,98211.00
2019-01-28T02:29:59.158Z,98214.00
2019-01-28T02:32:46.641Z,97896.00
2019-01-28T02:35:27.280Z,97959.00
2019-01-28T02:38:14.730Z,98208.00
2019-01-28T02:40:42.689Z,98206.00
2019-01-28T02:43:10.582Z,98204.00
2019-01-28T02:45:52.557Z,98205.00
2019-01-28T02:48:24.071Z,98202.00
2019-01-28T02:50:51.913Z,98206.00
2019-01-28T02:53:19.797Z,98199.00
2019-01-28T02:55:47.658Z,98188.00
2019-01-28T02:58:28.669Z,98115.00
2019-01-28T03:00:56.666Z,98187.00
2019-01-28T03:03:39.476Z,98012.00
2019-01-28T03:06:07.743Z,98185.00
2019-01-28T03:08:48.745Z,98158.00
2019-01-28T03:11:16.539Z,98181.00
2019-01-28T03:13:44.432Z,98180.00
2019-01-28T03:16:31.795Z,98175.00
2019-01-28T03:19:13.117Z,98182.00
2019-01-28T03:21:40.947Z,98178.00
2019-01-28T03:24:21.404Z,98172.00
2019-01-28T03:27:08.735Z,98083.00
2019-01-28T03:29:49.522Z,98179.00
2019-01-28T03:32:36.891Z,98210.00
2019-01-28T03:35:17.183Z,98156.00
2019-01-28T03:38:04.535Z,98071.00
2019-01-28T03:40:43.474Z,98201.00
2019-01-28T03:43:31.127Z,97945.00
2019-01-28T03:46:11.539Z,97919.00
2019-01-28T03:48:58.958Z,98161.00
2019-01-28T03:51:39.819Z,98152.00
2019-01-28T03:54:27.199Z,98194.00
2019-01-28T03:57:07.535Z,98159.00
2019-01-28T03:59:49.467Z,98089.00
2019-01-28T04:02:36.825Z,98155.00
2019-01-28T04:05:16.771Z,98189.00
2019-01-28T04:08:04.124Z,97900.00
2019-01-28T04:10:45.066Z,98154.00
2019-01-28T04:13:32.414Z,97923.00
2019-01-28T04:16:12.850Z,98156.00
2019-01-28T04:18:54.021Z,98025.00
2019-01-28T04:21:21.858Z,98145.00
2019-01-28T04:23:49.773Z,98138.00
2019-01-28T04:26:37.276Z,98141.00
2019-01-28T04:29:18.279Z,98016.00
2019-01-28T04:32:05.682Z,98224.00
2019-01-28T04:34:46.392Z,98129.00
2019-01-28T04:37:33.729Z,98146.00
2019-01-28T04:40:15.475Z,98133.00
2019-01-28T04:43:06.415Z,98123.00
2019-01-28T04:45:34.258Z,98121.00
2019-01-28T04:48:21.578Z,98041.00
2019-01-28T04:51:03.684Z,98114.00
2019-01-28T04:53:51.065Z,98093.00
2019-01-28T04:56:31.890Z,97903.00
2019-01-28T04:59:19.379Z,98097.00
2019-01-28T05:01:49.200Z,98099.00
2019-01-28T05:04:29.617Z,97766.00
2019-01-28T05:07:17.443Z,98112.00
2019-01-28T05:09:59.369Z,98091.00
2019-01-28T05:12:46.978Z,97777.00
2019-01-28T05:15:28.484Z,98084.00
2019-01-28T05:18:15.849Z,98215.00
2019-01-28T05:20:56.911Z,97797.00
2019-01-28T05:23:44.404Z,98076.00
2019-01-28T05:26:12.336Z,98081.00
2019-01-28T05:28:59.671Z,98081.00
2019-01-28T05:31:40.275Z,98073.00
2019-01-28T05:34:27.629Z,97977.00
2019-01-28T05:37:06.126Z,98077.00
2019-01-28T05:39:46.524Z,97805.00
2019-01-28T05:42:26.868Z,98074.00
2019-01-28T05:45:07.472Z,98083.00
2019-01-28T05:47:54.809Z,98106.00
2019-01-28T05:50:35.476Z,97853.00
2019-01-28T05:53:22.864Z,97838.00
2019-01-28T05:56:03.298Z,98057.00
2019-01-28T05:58:50.718Z,98164.00
2019-01-28T06:01:31.127Z,98057.00
2019-01-28T06:04:18.487Z,97869.00
2019-01-28T06:06:58.501Z,98047.00
2019-01-28T06:09:47.020Z,98086.00
2019-01-28T06:12:28.228Z,98047.00
2019-01-28T06:15:15.702Z,98049.00
2019-01-28T06:18:16.217Z,98048.00
2019-01-28T06:20:57.292Z,97709.00
2019-01-28T06:23:45.455Z,98039.00
2019-01-28T06:26:25.727Z,98032.00
2019-01-28T06:29:13.049Z,98032.00
2019-01-28T06:31:53.802Z,97800.00
2019-01-28T06:34:41.168Z,98102.00
2019-01-28T06:37:09.076Z,98025.00
2019-01-28T06:39:51.296Z,97996.00
2019-01-28T06:42:19.488Z,98035.00
2019-01-28T06:45:08.411Z,97885.00
2019-01-28T06:47:50.305Z,97754.00
2019-01-28T06:50:37.712Z,98101.00
2019-01-28T06:53:16.216Z,97833.00
2019-01-28T06:55:56.691Z,98078.00
2019-01-28T06:58:44.056Z,97982.00
2019-01-28T07:01:24.430Z,97870.00
2019-01-28T07:04:11.812Z,98046.00
2019-01-28T07:06:52.191Z,97967.00
2019-01-28T07:09:39.544Z,97951.00
2019-01-28T07:12:20.117Z,98041.00
2019-01-28T07:15:08.665Z,98043.00
2019-01-28T07:17:54.723Z,98042.00
2019-01-28T07:20:38.474Z,98041.00
2019-01-28T07:23:06.387Z,98037.00
2019-01-28T07:25:53.744Z,98059.00
2019-01-28T07:28:33.780Z,98038.00
2019-01-28T07:31:13.835Z,97758.00
2019-01-28T07:34:01.181Z,98040.00
2019-01-28T07:36:41.369Z,98034.00
2019-01-28T07:39:19.841Z,98047.00
2019-01-28T07:42:07.217Z,97755.00
2019-01-28T07:44:47.588Z,97987.00
2019-01-28T07:47:28.797Z,98044.00
2019-01-28T07:50:09.519Z,97708.00
2019-01-28T07:52:56.898Z,98047.00
2019-01-28T07:55:37.724Z,98105.00
2019-01-28T07:58:25.087Z,97909.00
2019-01-28T08:01:06.881Z,97825.00
2019-01-28T08:03:54.237Z,97811.00
2019-01-28T08:06:34.443Z,98050.00
2019-01-28T08:09:21.791Z,98070.00
2019-01-28T08:12:02.558Z,98146.00
2019-01-28T08:14:49.989Z,98120.00
2019-01-28T08:17:30.153Z,98050.00
2019-01-28T08:20:18.080Z,98052.00
2019-01-28T08:22:59.335Z,98056.00
2019-01-28T08:25:46.715Z,97906.00
2019-01-28T08:28:28.391Z,97850.00
2019-01-28T08:34:10.084Z,98063.00
2019-01-28T08:36:51.300Z,98052.00
2019-01-28T08:39:19.179Z,97956.00
2019-01-28T08:41:47.018Z,98061.00
2019-01-28T08:44:27.386Z,97853.00
2019-01-28T08:47:14.776Z,98055.00
2019-01-28T08:49:42.557Z,98069.00
2019-01-28T08:52:29.894Z,98067.00
2019-01-28T08:55:14.466Z,98151.00
2019-01-28T08:58:01.188Z,98075.00
2019-01-28T09:00:42.795Z,98095.00
2019-01-28T09:03:30.253Z,98116.00
2019-01-28T09:06:11.035Z,97919.00
2019-01-28T09:08:58.379Z,98064.00
2019-01-28T09:11:26.382Z,98071.00
2019-01-28T09:13:56.310Z,98069.00
2019-01-28T09:16:37.213Z,97869.00
2019-01-28T09:22:34.377Z,97851.00
2019-01-28T09:25:20.219Z,98084.00
2019-01-28T09:27:48.272Z,98073.00
2019-01-28T09:30:35.662Z,97817.00
2019-01-28T09:33:17.747Z,98074.00
2019-01-28T09:36:05.124Z,97802.00
2019-01-28T09:38:46.076Z,98135.00
2019-01-28T09:41:26.214Z,97848.00
2019-01-28T09:44:13.637Z,98071.00
2019-01-28T09:46:55.257Z,98079.00
2019-01-28T09:49:42.658Z,98056.00
2019-01-28T09:52:24.682Z,98082.00
2019-01-28T09:54:52.637Z,98099.00
2019-01-28T09:57:33.698Z,98100.00
2019-01-28T10:00:44.780Z,98100.00
2019-01-28T10:03:24.976Z,97887.00
2019-01-28T10:06:12.353Z,98090.00
2019-01-28T10:08:53.240Z,97904.00
2019-01-28T10:11:33.557Z,97929.00
2019-01-28T10:14:14.670Z,98111.00
2019-01-28T10:16:54.832Z,98110.00
2019-01-28T10:19:42.227Z,97972.00
2019-01-28T10:22:23.128Z,98116.00
2019-01-28T10:25:10.602Z,98183.00
2019-01-28T10:27:52.161Z,97954.00
2019-01-28T10:30:24.731Z,98127.00
2019-01-28T10:33:09.906Z,98106.00
2019-01-28T10:35:59.443Z,98107.00
2019-01-28T10:38:27.504Z,98117.00
2019-01-28T10:40:55.559Z,98123.00
2019-01-28T10:43:23.471Z,98130.00
2019-01-28T10:45:51.453Z,98112.00
2019-01-28T10:48:19.393Z,98123.00
2019-01-28T10:51:06.830Z,97889.00
2019-01-28T10:53:46.886Z,97913.00
2019-01-28T10:56:34.276Z,97930.00
2019-01-28T10:59:14.325Z,98107.00
2019-01-28T11:02:01.719Z,98115.00
2019-01-28T11:04:42.753Z,97924.00
2019-01-28T11:07:30.286Z,97902.00
2019-01-28T11:10:12.398Z,98119.00
2019-01-28T11:12:59.755Z,98199.00
2019-01-28T11:15:40.001Z,97847.00
2019-01-28T11:18:29.152Z,98201.00
2019-01-28T11:21:10.008Z,98199.00
2019-01-28T11:23:50.969Z,97856.00
2019-01-28T11:26:18.921Z,98122.00
2019-01-28T11:28:59.178Z,98218.00
2019-01-28T11:31:46.741Z,98136.00
2019-01-28T11:34:27.173Z,98219.00
2019-01-28T11:37:14.624Z,98199.00
2019-01-28T11:39:55.055Z,98136.00
2019-01-28T11:42:23.057Z,98142.00
2019-01-28T11:44:51.165Z,98146.00
2019-01-28T11:47:19.104Z,98145.00
2019-01-28T11:50:00.022Z,97918.00
2019-01-28T11:52:47.416Z,98148.00
2019-01-28T11:55:28.851Z,98179.00
2019-01-28T11:58:16.284Z,98031.00
2019-01-28T12:04:12.389Z,98149.00
2019-01-28T12:06:54.417Z,98093.00
2019-01-28T12:09:22.553Z,98157.00
2019-01-28T12:11:50.486Z,98157.00
2019-01-28T12:14:18.408Z,98167.00
2019-01-28T12:16:46.503Z,98175.00
2019-01-28T12:19:14.641Z,98170.00
2019-01-28T12:21:42.607Z,98175.00
2019-01-28T12:24:10.562Z,98193.00
2019-01-28T12:26:38.480Z,98185.00
2019-01-28T12:29:06.468Z,98187.00
2019-01-28T12:31:58.494Z,98190.00
2019-01-28T12:34:26.490Z,98194.00
2019-01-28T12:37:07.336Z,97944.00
2019-01-28T12:39:54.773Z,97960.00
2019-01-28T12:42:35.471Z,97949.00
2019-01-28T12:45:22.938Z,98216.00
2019-01-28T12:48:03.504Z,97963.00
2019-01-28T12:50:45.376Z,98209.00
2019-01-28T12:53:13.266Z,98202.00
2019-01-28T12:55:55.498Z,98210.00
2019-01-28T12:58:23.425Z,98214.00
2019-01-28T13:00:55.548Z,98210.00
2019-01-28T13:03:36.759Z,98340.00
2019-01-28T13:06:04.766Z,98237.00
2019-01-28T13:08:32.754Z,98241.00
2019-01-28T13:11:01.829Z,98231.00
2019-01-28T13:13:29.776Z,98241.00
2019-01-28T13:15:57.742Z,98254.00
2019-01-28T13:18:25.719Z,98242.00
2019-01-28T13:21:15.095Z,97989.00
2019-01-28T13:23:55.400Z,98099.00
2019-01-28T13:26:42.859Z,98255.00
2019-01-28T13:29:23.707Z,98006.00
2019-01-28T13:32:12.322Z,98261.00
2019-01-28T13:34:53.983Z,98255.00
2019-01-28T13:37:22.104Z,98266.00
2019-01-28T13:40:03.750Z,98324.00
2019-01-28T13:42:51.170Z,98271.00
2019-01-28T13:45:19.229Z,98289.00
2019-01-28T13:47:49.065Z,98281.00
2019-01-28T13:50:20.189Z,98298.00
2019-01-28T13:53:07.703Z,98295.00
2019-01-28T13:55:35.632Z,98302.00
2019-01-28T13:58:03.891Z,98302.00
2019-01-28T14:00:31.954Z,98304.00
2019-01-28T14:03:21.212Z,98311.00
2019-01-28T14:05:49.183Z,98319.00
2019-01-28T14:08:36.557Z,98314.00
2019-01-28T14:11:17.580Z,98420.00
2019-01-28T14:14:05.084Z,98325.00
2019-01-28T14:16:45.782Z,98343.00
2019-01-28T14:19:33.224Z,98291.00
2019-01-28T14:22:01.143Z,98329.00
2019-01-28T14:24:48.592Z,98430.00
2019-01-28T14:27:29.010Z,98127.00
2019-01-28T14:30:42.104Z,98349.00
2019-01-28T14:33:22.218Z,98210.00
2019-01-28T14:35:50.195Z,98357.00
2019-01-28T14:38:18.248Z,98369.00
2019-01-28T14:40:47.393Z,98364.00
2019-01-28T14:43:29.125Z,98401.00
2019-01-28T14:45:57.167Z,98363.00
2019-01-28T14:48:25.124Z,98370.00
2019-01-28T14:51:07.323Z,98382.00
2019-01-28T14:53:54.782Z,98390.00
2019-01-28T14:56:34.985Z,98486.00
2019-01-28T14:59:22.382Z,98173.00
2019-01-28T15:02:03.863Z,98399.00
2019-01-28T15:04:51.343Z,98404.00
2019-01-28T15:07:33.406Z,98414.00
2019-01-28T15:10:14.612Z,98195.00
2019-01-28T15:13:02.041Z,98420.00
2019-01-28T15:15:42.482Z,98430.00
2019-01-28T15:18:30.012Z,98155.00
2019-01-28T15:21:10.619Z,98236.00
2019-01-28T15:23:58.391Z,98191.00
2019-01-28T15:26:40.548Z,98444.00
2019-01-28T15:29:28.033Z,98528.00
2019-01-28T15:32:08.832Z,98562.00
2019-01-28T15:34:56.648Z,98471.00
2019-01-28T15:37:37.167Z,98470.00
2019-01-28T15:40:26.849Z,98257.00
2019-01-28T15:43:07.378Z,98484.00
2019-01-28T15:45:55.092Z,98485.00
2019-01-28T15:48:38.042Z,98487.00
2019-01-28T15:51:20.064Z,98259.00
2019-01-28T15:54:07.442Z,98501.00
2019-01-28T15:56:48.311Z,98273.00
2019-01-28T15:59:35.756Z,98278.00
2019-01-28T16:02:16.409Z,98390.00
2019-01-28T16:04:44.508Z,98509.00
2019-01-28T16:07:12.627Z,98542.00
2019-01-28T16:10:00.288Z,98597.00
2019-01-28T16:12:40.547Z,98539.00
2019-01-28T16:15:50.631Z,98531.00
2019-01-28T16:18:34.381Z,98292.00
2019-01-28T16:21:13.531Z,98543.00
2019-01-28T16:24:01.097Z,98542.00
2019-01-28T16:26:41.831Z,98562.00
2019-01-28T16:29:09.855Z,98552.00
2019-01-28T16:31:37.867Z,98553.00
2019-01-28T16:34:25.343Z,98602.00
2019-01-28T16:37:05.695Z,98403.00
2019-01-28T16:39:53.177Z,98581.00
2019-01-28T16:42:35.566Z,98663.00
2019-01-28T16:45:23.061Z,98579.00
2019-01-28T16:48:04.646Z,98393.00
2019-01-28T16:50:46.347Z,98416.00
2019-01-28T16:53:33.805Z,98624.00
2019-01-28T16:56:14.220Z,98473.00
2019-01-28T16:58:54.654Z,98624.00
2019-01-28T17:01:22.606Z,98631.00
2019-01-28T17:04:11.122Z,98547.00
2019-01-28T17:06:48.287Z,98646.00
2019-01-28T17:09:16.334Z,98648.00
2019-01-28T17:11:44.296Z,98664.00
2019-01-28T17:14:31.766Z,98733.00
2019-01-28T17:17:12.224Z,98674.00
2019-01-28T17:19:59.676Z,98677.00
2019-01-28T17:22:40.848Z,98439.00
2019-01-28T17:25:31.523Z,98700.00
2019-01-28T17:28:11.745Z,98702.00
2019-01-28T17:30:59.208Z,98704.00
2019-01-28T17:33:40.111Z,98716.00
2019-01-28T17:36:27.676Z,98828.00
2019-01-28T17:39:08.310Z,98737.00
2019-01-28T17:41:57.125Z,98478.00
2019-01-28T17:44:38.485Z,98529.00
2019-01-28T17:47:26.008Z,98743.00
2019-01-28T17:50:07.105Z,98509.00
2019-01-28T17:52:47.234Z,98725.00
2019-01-28T17:55:34.822Z,98758.00
2019-01-28T17:58:15.945Z,98572.00
2019-01-28T18:01:03.501Z,98617.00
2019-01-28T18:03:43.762Z,98777.00
2019-01-28T18:06:31.261Z,98786.00
2019-01-28T18:09:11.994Z,98787.00
2019-01-28T18:11:59.504Z,98705.00
2019-01-28T18:14:40.060Z,98642.00
2019-01-28T18:17:27.501Z,98737.00
2019-01-28T18:20:09.343Z,98651.00
2019-01-28T18:22:52.042Z,98614.00
2019-01-28T18:25:39.519Z,98832.00
2019-01-28T18:28:19.943Z,98638.00
2019-01-28T18:31:07.377Z,98853.00
2019-01-28T18:33:48.134Z,98628.00
2019-01-28T18:36:35.731Z,98847.00
2019-01-28T18:39:25.211Z,98865.00
2019-01-28T18:41:53.320Z,98871.00
2019-01-28T18:44:32.003Z,98968.00
2019-01-28T18:47:19.445Z,98889.00
2019-01-28T18:50:04.720Z,98778.00
2019-01-28T18:52:32.751Z,98895.00
2019-01-28T18:55:13.561Z,98760.00
2019-01-28T18:58:01.200Z,98596.00
2019-01-28T19:00:42.656Z,98726.00
2019-01-28T19:03:30.382Z,98841.00
2019-01-28T19:06:18.038Z,98923.00
2019-01-28T19:09:17.828Z,98939.00
2019-01-28T19:12:25.117Z,98892.00
2019-01-28T19:15:12.927Z,98943.00
2019-01-28T19:18:11.447Z,98954.00
2019-01-28T19:20:59.148Z,98965.00
2019-01-28T19:23:46.774Z,98849.00
2019-01-28T19:26:27.248Z,98713.00
2019-01-28T19:29:08.240Z,98896.00
2019-01-28T19:31:56.147Z,99087.00
2019-01-28T19:34:36.340Z,98753.00
2019-01-28T19:37:23.857Z,98806.00
2019-01-28T19:40:05.064Z,99021.00
2019-01-28T19:42:52.649Z,99026.00
2019-01-28T19:45:33.673Z,98715.00
2019-01-28T19:48:21.143Z,99025.00
2019-01-28T19:51:01.720Z,98796.00
2019-01-28T19:53:49.263Z,99159.00
2019-01-28T19:56:30.061Z,99004.00
2019-01-28T19:59:17.634Z,98884.00
2019-01-28T20:01:58.506Z,99065.00
2019-01-28T20:04:39.242Z,99058.00
2019-01-28T20:07:26.643Z,99048.00
2019-01-28T20:10:07.737Z,99044.00
2019-01-28T20:12:55.295Z,99055.00
2019-01-28T20:15:35.792Z,99075.00
2019-01-28T20:18:23.353Z,98869.00
2019-01-28T20:21:05.117Z,99068.00
2019-01-28T20:23:52.925Z,99000.00
2019-01-28T20:26:20.998Z,99084.00
2019-01-28T20:28:48.942Z,99076.00
2019-01-28T20:31:17.048Z,99079.00
2019-01-28T20:34:07.233Z,99090.00
2019-01-28T20:36:35.456Z,99083.00
2019-01-28T20:39:22.986Z,99090.00
2019-01-28T20:42:04.014Z,99103.00
2019-01-28T20:44:45.118Z,99112.00
2019-01-28T20:47:32.650Z,99109.00
2019-01-28T20:50:14.854Z,99010.00
2019-01-28T20:53:02.382Z,98969.00
2019-01-28T20:55:41.051Z,99114.00
2019-01-28T20:58:28.548Z,98997.00
2019-01-28T21:01:08.815Z,99140.00
2019-01-28T21:03:56.363Z,99219.00
2019-01-28T21:06:36.879Z,98980.00
2019-01-28T21:09:24.414Z,99156.00
2019-01-28T21:12:05.043Z,99230.00
2019-01-28T21:14:52.620Z,98926.00
2019-01-28T21:17:33.363Z,99152.00
2019-01-28T21:20:21.336Z,99168.00
2019-01-28T21:23:01.629Z,98968.00
2019-01-28T21:25:50.164Z,99163.00
2019-01-28T21:28:30.589Z,98957.00
2019-01-28T21:31:18.330Z,99028.00
2019-01-28T21:33:58.844Z,99182.00
2019-01-28T21:39:59.433Z,99187.00
2019-01-28T21:42:40.350Z,99056.00
2019-01-28T21:45:21.274Z,99197.00
2019-01-28T21:48:08.835Z,99199.00
2019-01-28T21:50:50.252Z,99203.00
2019-01-28T21:53:37.712Z,99060.00
2019-01-28T21:56:18.671Z,98953.00
2019-01-28T21:59:06.168Z,99217.00
2019-01-28T22:01:46.397Z,98985.00
2019-01-28T22:04:33.896Z,99182.00
2019-01-28T22:07:14.308Z,99007.00
2019-01-28T22:10:01.690Z,99041.00
2019-01-28T22:12:42.900Z,99050.00
2019-01-28T22:15:30.642Z,99280.00
2019-01-28T22:18:11.227Z,99242.00
2019-01-28T22:20:58.627Z,99248.00
2019-01-28T22:23:39.416Z,99024.00
2019-01-28T22:26:26.832Z,99038.00
2019-01-28T22:29:07.639Z,99275.00
2019-01-28T22:31:55.096Z,99275.00
2019-01-28T22:34:23.023Z,99278.00
2019-01-28T22:37:10.524Z,99276.00
2019-01-28T22:39:51.240Z,99054.00
2019-01-28T22:42:21.438Z,99282.00
2019-01-28T22:45:22.399Z,99282.00
2019-01-28T22:48:09.816Z,99095.00
2019-01-28T22:50:37.731Z,99283.00
2019-01-28T22:53:05.587Z,99286.00
2019-01-28T22:55:33.525Z,99290.00
2019-01-28T22:58:20.948Z,99362.00
2019-01-28T23:01:06.678Z,99083.00
2019-01-28T23:03:47.299Z,99296.00
2019-01-28T23:06:34.720Z,99096.00
2019-01-28T23:09:15.548Z,99100.00
2019-01-28T23:12:03.023Z,99289.00
2019-01-28T23:14:45.803Z,99314.00
2019-01-28T23:17:33.219Z,99309.00
2019-01-28T23:20:13.931Z,99313.00
2019-01-28T23:22:53.983Z,99354.00
2019-01-28T23:25:41.392Z,99149.00
2019-01-28T23:28:22.210Z,99445.00
2019-01-28T23:31:10.669Z,99109.00
2019-01-28T23:33:51.517Z,99319.00
2019-01-28T23:36:38.959Z,99326.00
2019-01-28T23:39:19.114Z,99328.00
2019-01-28T23:42:06.822Z,99328.00
2019-01-28T23:44:47.298Z,99192.00
2019-01-28T23:47:34.715Z,99332.00
2019-01-28T23:50:15.272Z,99056.00
2019-01-28T23:53:02.654Z,99134.00
2019-01-28T23:55:43.587Z,99051.00
2019-01-28T23:58:24.385Z,99358.00
